Time;durP1;ratioP1;P1;durP2;ratioP2;P2;SDS_P1;SDS_P2;PMS_P1;PMS_P2;Temp;Humidity;BMP_temperature;BMP_pressure;BME280_temperature;BME280_humidity;BME280_pressure;Samples;Min_cycle;Max_cycle;Signal;HPM_P1;HPM_P2
2021/06/11 00:01:57;;;;;;;;;1.00;1.00;;;;;22.91;49.57;101342.88;4899307;29;45783;-86
2021/06/11 00:04:23;;;;;;;;;2.00;2.00;;;;;22.90;49.56;101351.88;4899413;29;45782;-86
2021/06/11 00:06:50;;;;;;;;;3.00;2.00;;;;;22.74;49.17;101316.34;4882974;29;45734;-84
2021/06/11 00:09:18;;;;;;;;;2.00;2.00;;;;;22.84;49.58;101344.56;4883366;29;47598;-85
2021/06/11 00:11:45;;;;;;;;;2.00;2.00;;;;;22.86;49.28;101347.06;4881578;29;46446;-87
2021/06/11 00:14:11;;;;;;;;;2.00;1.75;;;;;22.86;49.62;101350.56;4881767;29;45718;-86
2021/06/11 00:16:36;;;;;;;;;1.75;1.75;;;;;22.74;49.52;101324.38;4882133;29;45656;-86
2021/06/11 00:19:02;;;;;;;;;1.75;1.75;;;;;22.50;50.05;101293.19;4898967;29;46358;-85
2021/06/11 00:21:27;;;;;;;;;2.00;1.00;;;;;22.54;49.63;101298.00;4898761;29;45629;-85
2021/06/11 00:23:53;;;;;;;;;3.00;2.50;;;;;22.77;49.60;101350.75;4881797;29;45662;-85
2021/06/11 00:29:40;;;;;;;;;3.00;2.50;;;;;22.68;49.80;101349.06;4901291;29;45811;-84
2021/06/11 00:32:06;;;;;;;;;2.00;2.00;;;;;22.66;50.24;101356.44;4884147;29;47290;-85
2021/06/11 00:34:32;;;;;;;;;1.00;1.00;;;;;22.53;49.93;101341.75;4901695;29;45714;-85
2021/06/11 00:36:57;;;;;;;;;1.00;1.00;;;;;22.49;50.13;101335.06;4904184;29;45504;-86
2021/06/11 00:39:23;;;;;;;;;1.75;1.75;;;;;22.28;50.65;101316.06;4885480;29;47614;-86
2021/06/11 00:41:48;;;;;;;;;1.00;1.00;;;;;22.44;50.58;101349.94;4901212;29;46446;-86
2021/06/11 00:44:14;;;;;;;;;1.25;1.25;;;;;22.04;50.17;101292.03;4899358;29;45524;-84
2021/06/11 00:46:39;;;;;;;;;1.00;1.00;;;;;22.25;50.60;101335.06;4898754;29;45500;-85
2021/06/11 00:49:04;;;;;;;;;1.50;1.00;;;;;22.04;50.20;101297.38;4881423;29;48344;-86
2021/06/11 00:51:30;;;;;;;;;1.25;1.25;;;;;22.32;50.28;101357.44;4898280;29;45648;-85
2021/06/11 00:53:56;;;;;;;;;2.00;2.00;;;;;22.13;50.65;101317.75;4898363;29;45884;-85
2021/06/11 00:59:43;;;;;;;;;1.75;1.75;;;;;22.25;50.47;101353.75;4898001;29;45717;-85
2021/06/11 01:02:10;;;;;;;;;2.00;1.75;;;;;22.24;50.52;101352.09;4881019;29;46653;-86
2021/06/11 01:04:36;;;;;;;;;3.00;1.00;;;;;22.12;50.74;101332.91;4898096;29;45716;-85
2021/06/11 01:07:03;;;;;;;;;1.75;1.75;;;;;22.20;50.56;101348.09;4898296;29;45645;-83
2021/06/11 01:09:31;;;;;;;;;1.00;1.00;;;;;21.94;50.69;101316.22;4881651;29;48459;-86
2021/06/11 01:11:57;;;;;;;;;1.00;1.00;;;;;21.99;50.63;101321.88;4899327;29;45672;-85
2021/06/11 01:14:23;;;;;;;;;2.25;2.00;;;;;21.83;51.33;101300.50;4898856;29;45765;-84
2021/06/11 01:16:49;;;;;;;;;1.25;1.25;;;;;21.92;50.89;101314.66;4881410;29;45956;-84
2021/06/11 01:19:21;;;;;;;;;1.00;1.00;;;;;21.65;50.57;101273.94;4881020;29;48301;-85
2021/06/11 01:21:58;;;;;;;;;1.50;1.00;;;;;22.04;50.84;101342.75;4881405;29;48383;-86
2021/06/11 01:30:37;;;;;;;;;1.00;1.00;;;;;21.94;50.98;101331.34;4901612;29;46128;-86
2021/06/11 01:33:05;;;;;;;;;1.00;1.00;;;;;21.87;51.03;101323.16;4887572;29;46557;-85
2021/06/11 01:35:41;;;;;;;;;0.25;0.00;;;;;21.72;51.00;101298.97;4891028;29;45636;-83
2021/06/11 01:38:13;;;;;;;;;1.00;1.00;;;;;21.78;50.96;101313.50;4891274;29;45698;-86
2021/06/11 01:40:42;;;;;;;;;0.50;0.50;;;;;21.62;51.13;101297.47;4887951;29;47711;-86
2021/06/11 01:43:09;;;;;;;;;2.00;1.75;;;;;21.51;51.23;101274.59;4903518;29;46357;-87
2021/06/11 01:45:34;;;;;;;;;2.00;1.00;;;;;21.63;50.98;101296.47;4885433;29;45704;-84
2021/06/11 01:48:00;;;;;;;;;1.00;1.00;;;;;21.78;51.09;101317.00;4904546;29;45482;-86
2021/06/11 01:50:31;;;;;;;;;1.00;1.00;;;;;21.59;51.16;101287.94;4903743;29;46363;-85
2021/06/11 01:52:59;;;;;;;;;1.00;1.00;;;;;21.76;51.01;101305.66;4903440;29;46028;-86
2021/06/11 01:55:27;;;;;;;;;1.00;1.00;;;;;21.71;51.13;101305.31;4902909;29;45752;-84
2021/06/11 01:57:54;;;;;;;;;1.50;1.50;;;;;21.89;51.29;101336.34;4901801;29;45539;-85
2021/06/11 02:00:19;;;;;;;;;1.00;0.50;;;;;21.75;51.16;101303.97;4901014;29;45774;-85
2021/06/11 02:02:46;;;;;;;;;1.00;1.00;;;;;21.73;51.06;101300.66;4884211;29;47108;-86
2021/06/11 02:05:13;;;;;;;;;1.00;1.00;;;;;21.65;51.35;101289.94;4886111;29;45698;-85
2021/06/11 02:07:40;;;;;;;;;0.75;0.75;;;;;21.75;50.76;101303.97;4903214;29;45587;-85
2021/06/11 02:10:08;;;;;;;;;1.00;0.00;;;;;21.76;50.89;101310.97;4886630;29;48578;-86
2021/06/11 02:12:34;;;;;;;;;1.75;0.25;;;;;21.61;51.23;101282.44;4887061;29;47332;-87
2021/06/11 02:15:01;;;;;;;;;1.00;1.00;;;;;21.81;50.78;101309.69;4886789;29;45626;-86
2021/06/11 02:17:27;;;;;;;;;1.00;1.00;;;;;21.87;50.98;101311.66;4904510;29;45675;-84
2021/06/11 02:19:53;;;;;;;;;2.00;1.00;;;;;21.76;51.09;101308.31;4901120;29;47389;-85
2021/06/11 02:22:19;;;;;;;;;0.00;0.00;;;;;21.64;51.13;101284.81;4904325;29;45549;-85
2021/06/11 02:24:45;;;;;;;;;1.75;1.00;;;;;21.53;51.26;101269.94;4886663;29;45564;-85
2021/06/11 02:30:32;;;;;;;;;1.00;1.00;;;;;21.63;51.33;101293.81;4899334;29;45739;-86
2021/06/11 02:32:57;;;;;;;;;1.00;1.00;;;;;21.69;51.48;101302.00;4899910;29;46391;-85
2021/06/11 02:35:24;;;;;;;;;1.00;1.00;;;;;21.57;51.16;101275.78;4882150;29;46064;-86
2021/06/11 02:37:51;;;;;;;;;0.00;0.00;;;;;21.74;51.40;101312.16;4901107;23;45955;-84
2021/06/11 02:40:20;;;;;;;;;1.25;1.25;;;;;21.50;51.30;101269.44;4879759;29;48450;-86
2021/06/11 02:43:16;;;;;;;;;1.00;0.75;;;;;21.42;51.29;101259.59;4880569;29;47975;-85
2021/06/11 02:45:50;;;;;;;;;1.00;0.75;;;;;21.65;51.53;101303.28;4896154;29;46209;-84
2021/06/11 02:48:27;;;;;;;;;2.00;2.00;;;;;21.63;51.47;101299.97;4897984;29;46202;-84
2021/06/11 02:51:05;;;;;;;;;1.00;1.00;;;;;21.60;51.28;101307.44;4878626;29;47481;-86
2021/06/11 02:53:35;;;;;;;;;1.00;1.00;;;;;21.48;51.24;101290.94;4879444;29;47866;-85
2021/06/11 02:56:08;;;;;;;;;1.00;1.00;;;;;21.45;51.46;101288.59;4897010;29;45857;-84
2021/06/11 02:58:46;;;;;;;;;1.25;1.00;;;;;21.35;51.77;101267.41;4880238;29;46066;-85
2021/06/11 03:01:13;;;;;;;;;1.25;1.00;;;;;21.30;51.36;101266.22;4870338;29;47568;-86
2021/06/11 03:03:41;;;;;;;;;1.00;1.00;;;;;21.30;51.71;101277.72;4877345;29;48545;-85
2021/06/11 03:06:10;;;;;;;;;1.00;1.00;;;;;21.45;51.58;101296.59;4879739;29;45788;-85
2021/06/11 03:08:39;;;;;;;;;0.25;0.25;;;;;21.20;51.54;101252.19;4880949;29;46150;-84
2021/06/11 03:11:09;;;;;;;;;4.50;3.75;;;;;21.34;51.22;101279.06;4876166;29;47961;-86
2021/06/11 03:13:39;;;;;;;;;1.50;1.00;;;;;21.03;51.48;101223.78;4894289;29;46592;-85
2021/06/11 03:16:04;;;;;;;;;1.00;1.00;;;;;21.30;51.50;101264.38;4891660;29;46018;-86
2021/06/11 03:18:35;;;;;;;;;1.00;1.00;;;;;21.46;51.54;101282.25;4885219;29;45730;-85
2021/06/11 03:21:11;;;;;;;;;1.00;1.00;;;;;21.30;51.51;101259.06;4885690;29;45696;-85
2021/06/11 03:23:46;;;;;;;;;0.75;0.75;;;;;21.31;51.35;101265.22;4879432;29;46649;-86
2021/06/11 03:26:25;;;;;;;;;1.25;1.00;;;;;21.38;51.62;101263.56;4874755;29;45763;-83
2021/06/11 03:28:55;;;;;;;;;1.00;1.00;;;;;21.46;51.72;101282.25;4888354;29;45702;-82
2021/06/11 03:31:25;;;;;;;;;1.00;1.00;;;;;21.35;51.56;101272.72;4898810;29;45742;-83
2021/06/11 03:33:55;;;;;;;;;1.00;0.50;;;;;21.47;51.92;101283.09;4899403;29;45782;-83
2021/06/11 03:36:27;;;;;;;;;1.00;1.00;;;;;21.47;51.45;101286.59;4887361;29;45903;-85
2021/06/11 03:38:58;;;;;;;;;0.75;0.75;;;;;21.35;52.08;101266.56;4905659;28;45829;-85
2021/06/11 03:41:23;;;;;;;;;1.00;1.00;;;;;21.46;51.46;101298.25;4882638;29;47655;-85
2021/06/11 03:43:52;;;;;;;;;1.00;1.00;;;;;21.47;51.64;101293.75;4877300;29;47254;-87
2021/06/11 03:46:19;;;;;;;;;1.00;1.00;;;;;21.30;51.56;101264.38;4883294;29;46130;-86
2021/06/11 03:48:49;;;;;;;;;1.25;1.00;;;;;21.42;51.49;101288.91;4881932;29;45652;-85
2021/06/11 03:51:16;;;;;;;;;1.50;1.00;;;;;21.15;51.70;101258.03;4890938;29;47013;-84
2021/06/11 03:53:43;;;;;;;;;1.00;1.00;;;;;21.17;51.69;101253.34;4896514;29;45617;-85
2021/06/11 03:56:11;;;;;;;;;1.00;1.00;;;;;21.17;51.76;101253.34;4897585;29;45733;-85
2021/06/11 03:58:41;;;;;;;;;1.00;1.00;;;;;21.44;51.78;101294.91;4881613;29;46327;-86
2021/06/11 04:01:10;;;;;;;;;2.00;1.50;;;;;21.22;51.50;101259.03;4873499;29;47481;-85
2021/06/11 04:03:39;;;;;;;;;0.75;0.75;;;;;21.42;51.87;101301.41;4879324;29;48282;-85
2021/06/11 04:06:09;;;;;;;;;1.00;1.00;;;;;21.42;51.97;101302.25;4890123;29;45775;-84
2021/06/11 04:08:36;;;;;;;;;2.00;1.50;;;;;21.19;52.03;101262.03;4885430;29;45985;-84
2021/06/11 04:11:03;;;;;;;;;3.00;3.00;;;;;21.31;51.60;101289.22;4896503;29;46654;-87
2021/06/11 04:13:53;;;;;;;;;4.00;2.25;;;;;21.43;51.93;101298.56;4878957;29;46179;-85
2021/06/11 04:16:23;;;;;;;;;2.00;2.00;;;;;21.38;52.10;101290.22;4892234;29;46010;-87
2021/06/11 04:18:52;;;;;;;;;2.00;2.00;;;;;21.40;52.24;101306.91;4885858;29;45648;-86
2021/06/11 04:21:32;;;;;;;;;5.00;3.50;;;;;21.37;52.37;101303.75;4879198;29;47736;-83
2021/06/11 04:24:02;;;;;;;;;5.50;4.25;;;;;21.25;52.80;101289.88;4889426;29;46229;-85
2021/06/11 04:26:32;;;;;;;;;3.25;3.00;;;;;21.26;52.72;101286.22;4879212;29;45913;-86
2021/06/11 04:28:59;;;;;;;;;4.00;4.00;;;;;21.11;52.77;101272.59;4885672;29;46061;-84
2021/06/11 04:31:28;;;;;;;;;4.00;3.00;;;;;21.19;52.94;101290.50;4892351;29;45771;-89
2021/06/11 04:33:54;;;;;;;;;3.00;2.50;;;;;21.05;53.15;101275.94;4894422;29;45991;-86
2021/06/11 04:36:20;;;;;;;;;3.75;3.75;;;;;21.10;53.17;101291.44;4897890;29;45799;-87
2021/06/11 04:38:55;;;;;;;;;4.00;3.50;;;;;21.19;53.75;101323.31;4898619;29;45662;-87
2021/06/11 04:41:21;;;;;;;;;2.00;1.75;;;;;20.81;54.10;101263.34;4868149;29;48599;-84
2021/06/11 04:43:47;;;;;;;;;3.00;3.00;;;;;21.02;53.94;101302.06;4897696;29;46307;-84
2021/06/11 04:46:12;;;;;;;;;4.00;3.00;;;;;20.98;54.18;101306.03;4874611;29;45732;-84
2021/06/11 04:48:37;;;;;;;;;2.50;2.50;;;;;20.81;54.31;101281.16;4874056;29;45659;-86
2021/06/11 04:51:03;;;;;;;;;3.00;3.00;;;;;20.61;54.37;101261.91;4897045;29;46808;-86
2021/06/11 04:53:29;;;;;;;;;2.00;2.00;;;;;20.72;54.45;101282.94;4897046;29;47220;-85
2021/06/11 04:55:56;;;;;;;;;2.25;2.25;;;;;20.86;54.59;101311.63;4879414;29;45859;-84
2021/06/11 04:58:22;;;;;;;;;3.50;3.00;;;;;20.67;54.46;101284.41;4880360;29;45663;-86
2021/06/11 05:00:48;;;;;;;;;2.00;2.00;;;;;20.53;55.12;101283.97;4886204;29;48355;-87
2021/06/11 05:03:13;;;;;;;;;4.00;3.00;;;;;20.45;55.10;101273.28;4906176;29;45525;-88
2021/06/11 05:05:39;;;;;;;;;3.00;3.00;;;;;20.70;55.21;101324.88;4892542;28;45761;-86
2021/06/11 05:08:05;;;;;;;;;3.25;3.25;;;;;20.65;55.18;101327.16;4892901;29;45887;-86
2021/06/11 05:10:30;;;;;;;;;6.00;4.00;;;;;20.34;55.37;101267.38;4895176;29;48128;-87
2021/06/11 05:12:56;;;;;;;;;3.00;3.00;;;;;20.60;55.66;101321.47;4890765;29;47398;-85
2021/06/11 05:15:21;;;;;;;;;3.25;3.25;;;;;20.41;55.50;101292.38;4888690;29;45391;-85
2021/06/11 05:17:47;;;;;;;;;4.25;4.00;;;;;20.58;55.64;101318.13;4891742;29;45791;-84
2021/06/11 05:20:13;;;;;;;;;4.50;3.50;;;;;20.58;55.41;101320.78;4896282;29;45669;-87
2021/06/11 05:22:38;;;;;;;;;5.00;4.00;;;;;20.56;55.39;101330.78;4895280;29;45726;-86
2021/06/11 05:25:05;;;;;;;;;4.75;4.25;;;;;20.59;55.74;101341.09;4882840;29;45773;-85
2021/06/11 05:27:30;;;;;;;;;4.50;4.25;;;;;20.41;55.67;101311.00;4880465;29;45726;-86
2021/06/11 05:29:56;;;;;;;;;4.00;3.25;;;;;20.54;56.08;101338.06;4874537;29;47997;-86
2021/06/11 05:32:21;;;;;;;;;4.00;4.00;;;;;20.53;56.30;101347.03;4870544;29;47116;-83
2021/06/11 05:34:49;;;;;;;;;4.00;4.00;;;;;20.43;56.29;101336.50;4872098;29;45811;-86
2021/06/11 05:37:15;;;;;;;;;4.00;4.00;;;;;20.23;56.51;101308.38;4883911;29;45558;-85
2021/06/11 05:39:40;;;;;;;;;3.75;3.25;;;;;20.46;56.29;101345.97;4884673;29;46918;-91
2021/06/11 05:42:06;;;;;;;;;5.50;5.00;;;;;20.48;56.11;101347.50;4887851;29;47399;-88
2021/06/11 05:44:31;;;;;;;;;3.50;3.00;;;;;20.32;55.98;101315.44;4899095;29;46171;-86
2021/06/11 05:46:58;;;;;;;;;3.00;3.00;;;;;20.47;56.22;101340.50;4882577;29;45690;-88
2021/06/11 05:49:23;;;;;;;;;4.00;4.00;;;;;20.30;56.06;101309.41;4905886;29;46944;-89
2021/06/11 05:51:49;;;;;;;;;4.00;4.00;;;;;20.25;55.84;101290.41;4890183;29;48126;-87
2021/06/11 05:54:14;;;;;;;;;3.00;2.25;;;;;20.62;56.25;101348.75;4908174;29;45595;-85
2021/06/11 05:56:42;;;;;;;;;3.75;3.25;;;;;20.62;55.95;101342.63;4899241;29;45645;-85
2021/06/11 05:59:08;;;;;;;;;5.00;4.00;;;;;20.62;56.26;101342.63;4898670;29;45648;-88
2021/06/11 06:01:33;;;;;;;;;3.00;2.00;;;;;20.65;56.05;101344.97;4889758;29;46955;-89
2021/06/11 06:03:59;;;;;;;;;9.00;6.75;;;;;20.75;56.09;101367.84;4889083;29;45314;-87
2021/06/11 06:06:25;;;;;;;;;4.50;4.00;;;;;20.66;55.88;101350.16;4882467;29;46481;-87
2021/06/11 06:08:50;;;;;;;;;3.00;2.75;;;;;20.61;55.80;101336.47;4913506;29;47076;-84
2021/06/11 06:11:16;;;;;;;;;3.00;3.00;;;;;20.60;56.01;101325.97;4899262;29;47664;-86
2021/06/11 06:13:42;;;;;;;;;5.00;4.00;;;;;20.38;56.15;101290.03;4901845;29;45892;-86
2021/06/11 06:16:07;;;;;;;;;3.50;3.25;;;;;20.91;55.79;101369.78;4891177;29;46281;-87
2021/06/11 06:18:33;;;;;;;;;2.00;2.00;;;;;20.86;55.75;101356.94;4881567;29;47411;-85
2021/06/11 06:20:59;;;;;;;;;2.00;2.00;;;;;20.97;55.59;101369.16;4881506;29;48004;-87
2021/06/11 06:23:25;;;;;;;;;2.75;2.75;;;;;20.92;55.38;101361.63;4880799;29;45792;-86
2021/06/11 06:25:50;;;;;;;;;3.75;3.75;;;;;20.79;55.75;101336.38;4899097;29;45830;-85
2021/06/11 06:28:16;;;;;;;;;3.75;3.00;;;;;20.80;55.69;101344.22;4876953;29;47592;-86
2021/06/11 06:30:42;;;;;;;;;6.50;4.50;;;;;20.74;55.48;101336.03;4883186;29;45978;-86
2021/06/11 06:33:08;;;;;;;;;3.50;3.50;;;;;20.57;56.20;101300.47;4877124;29;45698;-87
2021/06/11 06:35:33;;;;;;;;;4.50;4.50;;;;;20.65;56.43;101321.84;4876911;29;45985;-88
2021/06/11 06:37:59;;;;;;;;;5.00;4.00;;;;;21.01;56.21;101386.47;4901377;29;45759;-85
2021/06/11 06:40:24;;;;;;;;;3.25;3.25;;;;;20.99;56.60;101382.31;4878640;29;47106;-86
2021/06/11 06:42:50;;;;;;;;;4.50;4.00;;;;;20.73;56.14;101343.19;4883816;29;45785;-90
2021/06/11 06:45:19;;;;;;;;;4.25;3.50;;;;;20.76;55.76;101334.91;4881268;28;45741;-89
2021/06/11 06:47:45;;;;;;;;;8.00;5.50;;;;;20.94;56.43;101367.63;4879614;29;48336;-88
2021/06/11 06:50:17;;;;;;;;;5.75;4.00;;;;;21.02;56.27;101368.66;4882721;29;48379;-87
2021/06/11 06:52:42;;;;;;;;;5.25;4.00;;;;;20.81;56.13;101345.91;4870206;29;45783;-89
2021/06/11 06:55:09;;;;;;;;;5.00;4.00;;;;;20.95;55.74;101353.31;4880191;29;46955;-86
2021/06/11 06:57:36;;;;;;;;;3.25;2.25;;;;;20.93;55.81;101347.31;4878958;29;48295;-84
2021/06/11 07:00:03;;;;;;;;;3.00;3.00;;;;;20.82;55.78;101331.59;4894647;29;45906;-83
2021/06/11 07:02:28;;;;;;;;;1.00;1.00;;;;;21.04;55.54;101359.53;4894112;29;45960;-83
2021/06/11 07:04:53;;;;;;;;;2.75;2.00;;;;;21.18;54.80;101385.63;4897235;29;45958;-80
2021/06/11 07:07:19;;;;;;;;;2.00;2.00;;;;;21.22;55.23;101384.28;4873435;29;46297;-83
2021/06/11 07:09:44;;;;;;;;;2.00;2.00;;;;;21.20;55.07;101375.66;4873399;29;46497;-82
2021/06/11 07:12:11;;;;;;;;;3.50;3.00;;;;;21.29;54.66;101373.84;4892910;29;45727;-85
2021/06/11 07:14:36;;;;;;;;;2.00;2.00;;;;;21.34;54.96;101375.03;4897046;28;45769;-81
2021/06/11 07:17:05;;;;;;;;;4.00;3.00;;;;;21.23;54.60;101356.66;4894740;29;46076;-81
2021/06/11 07:19:31;;;;;;;;;4.00;3.25;;;;;21.43;54.85;101383.88;4899409;28;46475;-79
2021/06/11 07:21:57;;;;;;;;;2.50;2.50;;;;;21.44;54.71;101379.41;4895117;29;45776;-78
2021/06/11 07:24:22;;;;;;;;;5.25;3.25;;;;;21.39;54.35;101365.72;4875522;29;45677;-80
2021/06/11 07:26:48;;;;;;;;;4.50;4.00;;;;;21.44;54.69;101363.41;4896526;29;46464;-78
2021/06/11 07:29:14;;;;;;;;;4.00;4.00;;;;;21.46;54.20;101369.41;4876715;29;46020;-80
2021/06/11 07:31:39;;;;;;;;;5.25;4.75;;;;;21.50;54.47;101368.09;4894334;29;45867;-78
2021/06/11 07:34:05;;;;;;;;;4.00;3.25;;;;;21.60;54.69;101374.97;4892715;28;46228;-79
2021/06/11 07:36:30;;;;;;;;;3.00;3.00;;;;;21.67;54.34;101383.16;4895159;29;45675;-79
2021/06/11 07:38:56;;;;;;;;;2.75;2.00;;;;;21.67;54.52;101381.31;4892461;29;47211;-78
2021/06/11 07:41:22;;;;;;;;;5.00;3.00;;;;;21.67;54.30;101378.66;4893878;29;45718;-78
2021/06/11 07:43:50;;;;;;;;;5.00;3.00;;;;;21.76;54.06;101387.50;4894992;29;45892;-76
2021/06/11 07:46:17;;;;;;;;;2.50;2.00;;;;;21.74;54.00;101378.84;4890189;29;45748;-79
2021/06/11 07:48:42;;;;;;;;;2.00;2.00;;;;;21.78;53.71;101378.34;4891039;29;46105;-82
2021/06/11 07:51:08;;;;;;;;;3.00;2.00;;;;;21.83;53.59;101385.88;4897337;29;45784;-83
2021/06/11 07:53:33;;;;;;;;;3.75;3.00;;;;;21.75;53.53;101372.53;4898887;29;45750;-82
2021/06/11 07:55:59;;;;;;;;;3.25;2.75;;;;;21.88;53.63;101382.72;4895183;29;46673;-83
2021/06/11 07:58:24;;;;;;;;;4.00;3.00;;;;;21.92;53.56;101392.88;4897670;29;46211;-81
2021/06/11 08:00:50;;;;;;;;;3.75;3.00;;;;;21.82;53.00;101375.34;4898395;29;45544;-80
2021/06/11 08:03:15;;;;;;;;;3.75;3.00;;;;;21.79;53.37;101360.53;4897459;29;45708;-79
2021/06/11 08:05:41;;;;;;;;;4.00;3.00;;;;;21.96;53.49;101382.78;4894239;29;46347;-79
2021/06/11 08:08:07;;;;;;;;;5.75;5.00;;;;;21.83;53.00;101361.03;4894795;29;46052;-81
2021/06/11 08:10:33;;;;;;;;;5.50;3.00;;;;;22.05;53.01;101387.13;4872226;28;46102;-79
2021/06/11 08:12:59;;;;;;;;;3.25;2.00;;;;;22.04;53.00;101388.94;4890232;28;45861;-80
2021/06/11 08:15:24;;;;;;;;;3.00;3.00;;;;;22.09;52.94;101385.78;4890095;29;46596;-80
2021/06/11 08:17:50;;;;;;;;;3.00;3.00;;;;;22.17;53.01;101391.16;4887135;29;46001;-82
2021/06/11 08:20:15;;;;;;;;;4.50;4.00;;;;;22.17;52.94;101389.31;4890555;29;45801;-78
2021/06/11 08:22:41;;;;;;;;;2.50;2.00;;;;;22.26;52.80;101398.16;4889259;29;45769;-78
2021/06/11 08:25:09;;;;;;;;;3.25;3.25;;;;;22.26;52.77;101390.16;4889011;29;46184;-82
2021/06/11 08:27:35;;;;;;;;;3.00;3.00;;;;;22.35;52.43;101401.69;4891247;29;46111;-80
2021/06/11 08:30:00;;;;;;;;;3.25;3.00;;;;;22.27;52.73;101389.16;4874087;29;46161;-81
2021/06/11 08:32:26;;;;;;;;;3.00;2.00;;;;;22.32;52.59;101394.81;4876610;29;45810;-78
2021/06/11 08:34:51;;;;;;;;;4.00;3.25;;;;;22.42;52.44;101413.34;4893672;28;46214;-80
2021/06/11 08:37:20;;;;;;;;;2.00;2.00;;;;;22.42;52.36;101400.84;4877535;29;48052;-80
2021/06/11 08:39:47;;;;;;;;;4.25;3.00;;;;;22.48;52.40;101418.88;4890890;29;45722;-80
2021/06/11 08:42:14;;;;;;;;;3.00;3.00;;;;;22.49;52.49;101403.69;4892857;29;45984;-83
2021/06/11 08:44:41;;;;;;;;;3.00;3.00;;;;;22.49;52.26;101391.16;4899025;29;46198;-85
2021/06/11 08:47:08;;;;;;;;;3.00;3.00;;;;;22.60;52.08;101408.69;4895724;29;46156;-82
2021/06/11 08:49:33;;;;;;;;;2.50;2.00;;;;;22.64;51.69;101407.34;4860014;29;46118;-80
2021/06/11 08:51:59;;;;;;;;;4.25;4.25;;;;;22.59;52.04;101399.00;4891351;29;47013;-79
2021/06/11 08:54:26;;;;;;;;;4.50;4.00;;;;;22.49;51.53;101380.47;4872257;29;47738;-81
2021/06/11 08:56:53;;;;;;;;;4.00;3.00;;;;;22.75;51.34;101412.38;4891209;29;46053;-81
2021/06/11 08:59:19;;;;;;;;;2.00;2.00;;;;;22.75;51.91;101406.19;4891528;29;46291;-82
2021/06/11 09:01:44;;;;;;;;;4.00;3.25;;;;;22.77;51.62;101401.53;4893591;29;45917;-85
2021/06/11 09:04:10;;;;;;;;;2.75;2.75;;;;;22.74;51.44;101388.50;4893537;29;46536;-80
2021/06/11 09:06:35;;;;;;;;;4.75;3.00;;;;;22.71;51.61;101384.34;4893252;29;46557;-79
2021/06/11 09:09:03;;;;;;;;;2.75;2.75;;;;;22.81;51.10;101393.00;4892100;29;45748;-80
2021/06/11 09:11:34;;;;;;;;;3.00;2.75;;;;;22.87;51.21;101400.34;4892382;29;46085;-81
2021/06/11 09:14:00;;;;;;;;;3.00;3.00;;;;;22.93;51.05;101406.84;4873325;29;46596;-81
2021/06/11 09:16:28;;;;;;;;;3.00;3.00;;;;;22.98;51.22;101400.00;4892181;29;46051;-81
2021/06/11 09:18:58;;;;;;;;;6.75;6.75;;;;;22.95;51.27;101367.41;4874604;29;46862;-80
2021/06/11 09:21:29;;;;;;;;;5.00;5.00;;;;;23.07;51.48;101387.44;4893461;29;45888;-82
2021/06/11 09:24:16;;;;;;;;;5.00;4.00;;;;;23.12;50.88;101392.25;4892565;29;46105;-83
2021/06/11 09:26:43;;;;;;;;;3.00;3.00;;;;;23.14;50.68;101385.75;4892098;29;46757;-83
2021/06/11 09:29:20;;;;;;;;;3.00;3.00;;;;;23.12;50.73;101382.41;4894028;29;46685;-83
2021/06/11 09:31:46;;;;;;;;;3.25;3.25;;;;;23.18;50.55;101391.59;4892052;29;45753;-85
2021/06/11 09:34:26;;;;;;;;;2.75;2.75;;;;;23.02;51.15;101355.03;4894183;28;47773;-85
2021/06/11 09:37:19;;;;;;;;;3.00;2.75;;;;;23.22;50.50;101388.38;4895021;29;46028;-85
2021/06/11 09:39:48;;;;;;;;;3.00;3.00;;;;;23.27;50.99;101383.34;4890743;29;45751;-84
2021/06/11 09:42:18;;;;;;;;;3.25;3.25;;;;;23.32;50.67;101388.22;4894995;29;45713;-86
2021/06/11 09:44:54;;;;;;;;;4.00;3.00;;;;;23.35;50.84;101386.00;4899228;28;45836;-87
2021/06/11 09:47:38;;;;;;;;;2.50;2.00;;;;;23.39;50.30;101381.97;4892246;29;46727;-86
2021/06/11 09:50:11;;;;;;;;;3.00;3.00;;;;;23.43;50.70;101385.97;4893989;29;46028;-84
2021/06/11 09:52:58;;;;;;;;;3.00;2.00;;;;;23.46;50.22;101382.16;4882651;29;45814;-83
2021/06/11 09:55:28;;;;;;;;;3.75;3.00;;;;;23.52;50.68;101380.63;4862202;29;45862;-89
2021/06/11 09:58:02;;;;;;;;;3.50;2.25;;;;;23.55;49.96;101377.59;4875155;29;46396;-85
2021/06/11 10:00:32;;;;;;;;;4.00;3.00;;;;;23.57;50.41;101379.09;4858813;29;46428;-87
2021/06/11 10:02:59;;;;;;;;;3.50;3.25;;;;;23.59;50.24;101379.75;4853461;29;45815;-83
2021/06/11 10:05:27;;;;;;;;;3.75;3.00;;;;;23.49;50.29;101355.03;4861776;29;46052;-85
2021/06/11 10:07:53;;;;;;;;;4.00;3.00;;;;;23.57;50.22;101372.91;4865631;29;45876;-81
2021/06/11 10:10:19;;;;;;;;;4.00;3.50;;;;;23.67;49.93;101371.69;4859753;29;46959;-85
2021/06/11 10:12:45;;;;;;;;;3.00;3.00;;;;;23.59;50.27;101362.88;4862097;29;45675;-85
2021/06/11 10:15:13;;;;;;;;;4.75;4.00;;;;;23.72;50.15;101381.84;4856919;29;46350;-83
2021/06/11 10:17:41;;;;;;;;;2.00;1.00;;;;;23.65;50.20;101363.00;4857463;29;46152;-83
2021/06/11 10:20:08;;;;;;;;;3.50;3.00;;;;;23.73;49.81;101364.78;4845973;29;45793;-84
2021/06/11 10:22:33;;;;;;;;;2.00;2.00;;;;;23.83;50.33;101379.63;4858332;29;45842;-86
2021/06/11 10:24:59;;;;;;;;;3.25;3.25;;;;;23.62;50.10;101343.78;4858681;29;46444;-83
2021/06/11 10:27:25;;;;;;;;;4.00;3.50;;;;;23.88;49.76;101387.13;4859062;29;45758;-84
2021/06/11 10:29:50;;;;;;;;;4.00;3.00;;;;;23.83;49.73;101368.91;4857898;29;45913;-83
2021/06/11 10:32:16;;;;;;;;;3.00;3.00;;;;;23.94;49.42;101375.72;4877848;29;46138;-82
2021/06/11 10:34:54;;;;;;;;;3.00;3.00;;;;;23.70;49.64;101336.53;4898545;28;46714;-87
2021/06/11 10:37:32;;;;;;;;;4.00;3.00;;;;;24.00;49.30;101375.00;4890456;29;46163;-84
2021/06/11 10:40:31;;;;;;;;;4.00;3.25;;;;;23.98;49.38;101366.31;4896508;29;45810;-84
2021/06/11 10:43:23;;;;;;;;;4.50;3.00;;;;;24.09;49.39;101370.41;4881063;29;45562;-82
2021/06/11 10:45:50;;;;;;;;;4.00;3.00;;;;;23.91;49.44;101325.22;4885305;29;47294;-81
2021/06/11 10:48:16;;;;;;;;;3.50;3.25;;;;;23.97;48.96;101334.38;4888372;29;45600;-81
2021/06/11 10:50:44;;;;;;;;;4.25;3.25;;;;;24.03;49.11;101337.16;4897593;29;45702;-81
2021/06/11 10:53:11;;;;;;;;;3.00;3.00;;;;;24.22;49.18;101371.53;4897286;29;45709;-82
2021/06/11 10:55:44;;;;;;;;;4.00;3.75;;;;;24.24;49.30;101374.84;4900798;29;46270;-83
2021/06/11 10:58:09;;;;;;;;;4.00;3.00;;;;;24.28;49.59;101366.47;4888210;29;47475;-87
2021/06/11 11:00:36;;;;;;;;;3.25;3.25;;;;;24.30;49.31;101359.91;4888621;29;45700;-85
2021/06/11 11:03:04;;;;;;;;;4.75;4.00;;;;;24.29;49.41;101349.38;4897178;29;45878;-84
2021/06/11 11:05:35;;;;;;;;;6.25;5.25;;;;;24.37;49.32;101360.03;4886278;29;45547;-87
2021/06/11 11:08:05;;;;;;;;;6.00;4.25;;;;;24.28;49.33;101331.66;4894928;29;45631;-85
2021/06/11 11:10:34;;;;;;;;;5.00;5.00;;;;;24.33;48.72;101332.78;4880753;29;46871;-86
2021/06/11 11:13:05;;;;;;;;;3.00;2.50;;;;;24.42;48.88;101349.59;4896124;29;46166;-83
2021/06/11 11:15:36;;;;;;;;;4.00;4.00;;;;;24.52;48.94;101344.81;4887320;29;46924;-85
2021/06/11 11:18:03;;;;;;;;;5.00;4.00;;;;;24.56;48.95;101346.13;4878623;29;47271;-84
2021/06/11 11:20:30;;;;;;;;;5.00;3.75;;;;;24.57;48.55;101334.38;4880345;29;46060;-84
2021/06/11 11:23:00;;;;;;;;;3.00;3.00;;;;;24.52;48.48;101318.00;4894128;29;45872;-85
2021/06/11 11:25:27;;;;;;;;;4.00;4.00;;;;;24.72;47.60;101348.66;4880776;29;46176;-83
2021/06/11 11:27:55;;;;;;;;;4.00;3.25;;;;;24.68;47.95;101342.81;4891203;29;46663;-81
2021/06/11 11:30:23;;;;;;;;;4.00;3.50;;;;;24.74;47.42;101346.59;4887674;29;45698;-82
2021/06/11 11:32:50;;;;;;;;;4.75;4.75;;;;;24.82;47.65;101349.22;4883306;29;45872;-86
2021/06/11 11:35:16;;;;;;;;;3.50;3.50;;;;;24.82;47.26;101338.50;4873335;29;48027;-81
2021/06/11 11:37:43;;;;;;;;;4.75;3.00;;;;;24.76;47.49;101322.31;4899269;29;45661;-84
2021/06/11 11:40:09;;;;;;;;;4.00;4.00;;;;;24.86;47.61;101328.22;4899158;29;45610;-84
2021/06/11 11:42:35;;;;;;;;;3.50;3.00;;;;;24.92;47.79;101327.53;4899237;29;45581;-84
2021/06/11 11:48:24;;;;;;;;;4.75;4.25;;;;;25.01;46.83;101331.75;4898744;29;45883;-81